sensor_id;sensor_type;location;lat;lon;timestamp;temperature;humidity
41344;DHT22;27089;50.022;7.604;2023-05-23T00:01:07;16.20;99.90
41344;DHT22;27089;50.022;7.604;2023-05-23T00:03:34;16.30;99.90
41344;DHT22;27089;50.022;7.604;2023-05-23T00:06:04;16.30;99.90
41344;DHT22;27089;50.022;7.604;2023-05-23T00:08:33;16.30;99.90
41344;DHT22;27089;50.022;7.604;2023-05-23T00:11:00;16.30;99.90
41344;DHT22;27089;50.022;7.604;2023-05-23T00:13:27;16.40;99.90
41344;DHT22;27089;50.022;7.604;2023-05-23T00:15:54;16.40;99.90
41344;DHT22;27089;50.022;7.604;2023-05-23T00:18:23;16.40;99.90
41344;DHT22;27089;50.022;7.604;2023-05-23T00:20:50;16.40;99.90
41344;DHT22;27089;50.022;7.604;2023-05-23T00:23:17;16.40;99.90
41344;DHT22;27089;50.022;7.604;2023-05-23T00:25:46;16.40;99.90
41344;DHT22;27089;50.022;7.604;2023-05-23T00:28:17;16.40;99.90
41344;DHT22;27089;50.022;7.604;2023-05-23T00:30:44;16.40;99.90
41344;DHT22;27089;50.022;7.604;2023-05-23T00:33:15;16.30;99.90
41344;DHT22;27089;50.022;7.604;2023-05-23T00:35:49;16.30;99.90
41344;DHT22;27089;50.022;7.604;2023-05-23T00:38:16;16.30;99.90
41344;DHT22;27089;50.022;7.604;2023-05-23T00:40:44;16.20;99.90
41344;DHT22;27089;50.022;7.604;2023-05-23T00:43:12;16.20;99.90
41344;DHT22;27089;50.022;7.604;2023-05-23T00:45:40;16.10;99.90
41344;DHT22;27089;50.022;7.604;2023-05-23T00:48:07;16.00;99.90
41344;DHT22;27089;50.022;7.604;2023-05-23T00:50:34;16.00;99.90
41344;DHT22;27089;50.022;7.604;2023-05-23T00:53:03;16.00;99.90
41344;DHT22;27089;50.022;7.604;2023-05-23T00:55:30;16.00;99.90
41344;DHT22;27089;50.022;7.604;2023-05-23T00:57:57;15.80;99.90
41344;DHT22;27089;50.022;7.604;2023-05-23T01:00:26;15.80;99.90
41344;DHT22;27089;50.022;7.604;2023-05-23T01:02:53;15.70;99.90
41344;DHT22;27089;50.022;7.604;2023-05-23T01:05:21;15.70;99.90
41344;DHT22;27089;50.022;7.604;2023-05-23T01:07:50;15.60;99.90
41344;DHT22;27089;50.022;7.604;2023-05-23T01:10:20;15.60;99.90
41344;DHT22;27089;50.022;7.604;2023-05-23T01:12:57;15.60;99.90
41344;DHT22;27089;50.022;7.604;2023-05-23T01:15:29;15.50;99.90
41344;DHT22;27089;50.022;7.604;2023-05-23T01:18:03;15.50;99.90
41344;DHT22;27089;50.022;7.604;2023-05-23T01:20:34;15.50;99.90
41344;DHT22;27089;50.022;7.604;2023-05-23T01:23:21;15.50;99.90
41344;DHT22;27089;50.022;7.604;2023-05-23T01:28:44;15.40;99.90
41344;DHT22;27089;50.022;7.604;2023-05-23T01:31:12;15.40;99.90
41344;DHT22;27089;50.022;7.604;2023-05-23T01:33:40;15.40;99.90
41344;DHT22;27089;50.022;7.604;2023-05-23T01:36:08;15.30;99.90
41344;DHT22;27089;50.022;7.604;2023-05-23T01:38:36;15.30;99.90
41344;DHT22;27089;50.022;7.604;2023-05-23T01:41:03;15.30;99.90
41344;DHT22;27089;50.022;7.604;2023-05-23T01:43:30;15.30;99.90
41344;DHT22;27089;50.022;7.604;2023-05-23T01:45:59;15.20;99.90
41344;DHT22;27089;50.022;7.604;2023-05-23T01:48:28;15.20;99.90
41344;DHT22;27089;50.022;7.604;2023-05-23T01:50:55;15.20;99.90
41344;DHT22;27089;50.022;7.604;2023-05-23T01:53:22;15.20;99.90
41344;DHT22;27089;50.022;7.604;2023-05-23T01:55:51;15.20;99.90
41344;DHT22;27089;50.022;7.604;2023-05-23T01:58:18;15.20;99.90
41344;DHT22;27089;50.022;7.604;2023-05-23T02:00:45;15.20;99.90
41344;DHT22;27089;50.022;7.604;2023-05-23T02:03:14;15.20;99.90
41344;DHT22;27089;50.022;7.604;2023-05-23T02:05:41;15.20;99.90
41344;DHT22;27089;50.022;7.604;2023-05-23T02:08:08;15.10;99.90
41344;DHT22;27089;50.022;7.604;2023-05-23T02:10:35;15.10;99.90
41344;DHT22;27089;50.022;7.604;2023-05-23T02:13:02;15.10;99.90
41344;DHT22;27089;50.022;7.604;2023-05-23T02:15:29;15.10;99.90
41344;DHT22;27089;50.022;7.604;2023-05-23T02:17:56;15.00;99.90
41344;DHT22;27089;50.022;7.604;2023-05-23T02:20:24;15.00;99.90
41344;DHT22;27089;50.022;7.604;2023-05-23T02:22:51;15.00;99.90
41344;DHT22;27089;50.022;7.604;2023-05-23T02:25:18;14.90;99.90
41344;DHT22;27089;50.022;7.604;2023-05-23T02:27:45;14.90;99.90
41344;DHT22;27089;50.022;7.604;2023-05-23T02:30:13;14.90;99.90
41344;DHT22;27089;50.022;7.604;2023-05-23T02:32:40;14.90;99.90
41344;DHT22;27089;50.022;7.604;2023-05-23T02:35:07;14.90;99.90
41344;DHT22;27089;50.022;7.604;2023-05-23T02:37:36;14.90;99.90
41344;DHT22;27089;50.022;7.604;2023-05-23T02:40:04;14.80;99.90
41344;DHT22;27089;50.022;7.604;2023-05-23T02:42:32;14.80;99.90
41344;DHT22;27089;50.022;7.604;2023-05-23T02:44:59;14.80;99.90
41344;DHT22;27089;50.022;7.604;2023-05-23T02:47:26;14.80;99.90
41344;DHT22;27089;50.022;7.604;2023-05-23T02:49:53;14.80;99.90
41344;DHT22;27089;50.022;7.604;2023-05-23T02:52:20;14.80;99.90
41344;DHT22;27089;50.022;7.604;2023-05-23T02:54:49;14.70;99.90
41344;DHT22;27089;50.022;7.604;2023-05-23T02:57:16;14.80;99.90
41344;DHT22;27089;50.022;7.604;2023-05-23T02:59:42;14.70;99.90
41344;DHT22;27089;50.022;7.604;2023-05-23T03:02:09;14.70;99.90
41344;DHT22;27089;50.022;7.604;2023-05-23T03:04:37;14.70;99.90
41344;DHT22;27089;50.022;7.604;2023-05-23T03:07:04;14.70;99.90
41344;DHT22;27089;50.022;7.604;2023-05-23T03:09:31;14.70;99.90
41344;DHT22;27089;50.022;7.604;2023-05-23T03:12:01;14.70;99.90
41344;DHT22;27089;50.022;7.604;2023-05-23T03:14:28;14.70;99.90
41344;DHT22;27089;50.022;7.604;2023-05-23T03:16:55;14.60;99.90
41344;DHT22;27089;50.022;7.604;2023-05-23T03:19:22;14.60;99.90
41344;DHT22;27089;50.022;7.604;2023-05-23T03:21:49;14.70;99.90
41344;DHT22;27089;50.022;7.604;2023-05-23T03:24:17;14.60;99.90
41344;DHT22;27089;50.022;7.604;2023-05-23T03:26:44;14.60;99.90
41344;DHT22;27089;50.022;7.604;2023-05-23T03:29:12;14.60;99.90
41344;DHT22;27089;50.022;7.604;2023-05-23T03:31:39;14.60;99.90
41344;DHT22;27089;50.022;7.604;2023-05-23T03:34:06;14.60;99.90
41344;DHT22;27089;50.022;7.604;2023-05-23T03:36:33;14.50;99.90
41344;DHT22;27089;50.022;7.604;2023-05-23T03:39:01;14.50;99.90
41344;DHT22;27089;50.022;7.604;2023-05-23T03:41:28;14.50;99.90
41344;DHT22;27089;50.022;7.604;2023-05-23T03:43:55;14.40;99.90
41344;DHT22;27089;50.022;7.604;2023-05-23T03:46:23;14.40;99.90
41344;DHT22;27089;50.022;7.604;2023-05-23T03:48:50;14.40;99.90
41344;DHT22;27089;50.022;7.604;2023-05-23T03:51:17;14.40;99.90
41344;DHT22;27089;50.022;7.604;2023-05-23T03:53:44;14.40;99.90
41344;DHT22;27089;50.022;7.604;2023-05-23T03:56:11;14.40;99.90
41344;DHT22;27089;50.022;7.604;2023-05-23T03:58:38;14.40;99.90
41344;DHT22;27089;50.022;7.604;2023-05-23T04:01:05;14.40;99.90
41344;DHT22;27089;50.022;7.604;2023-05-23T04:03:35;14.40;99.90
41344;DHT22;27089;50.022;7.604;2023-05-23T04:06:02;14.40;99.90
41344;DHT22;27089;50.022;7.604;2023-05-23T04:08:29;14.40;99.90
41344;DHT22;27089;50.022;7.604;2023-05-23T04:10:58;14.40;99.90
41344;DHT22;27089;50.022;7.604;2023-05-23T04:13:25;14.40;99.90
41344;DHT22;27089;50.022;7.604;2023-05-23T04:15:53;14.40;99.90
41344;DHT22;27089;50.022;7.604;2023-05-23T04:18:20;14.40;99.90
41344;DHT22;27089;50.022;7.604;2023-05-23T04:20:49;14.50;99.90
41344;DHT22;27089;50.022;7.604;2023-05-23T04:23:16;14.50;99.90
41344;DHT22;27089;50.022;7.604;2023-05-23T04:25:43;14.50;99.90
41344;DHT22;27089;50.022;7.604;2023-05-23T04:28:10;14.50;99.90
41344;DHT22;27089;50.022;7.604;2023-05-23T04:30:37;14.50;99.90
41344;DHT22;27089;50.022;7.604;2023-05-23T04:33:04;14.40;99.90
41344;DHT22;27089;50.022;7.604;2023-05-23T04:35:32;14.40;99.90
41344;DHT22;27089;50.022;7.604;2023-05-23T04:38:04;14.40;99.90
41344;DHT22;27089;50.022;7.604;2023-05-23T04:40:31;14.40;99.90
41344;DHT22;27089;50.022;7.604;2023-05-23T04:42:58;14.40;99.90
41344;DHT22;27089;50.022;7.604;2023-05-23T04:45:25;14.40;99.90
41344;DHT22;27089;50.022;7.604;2023-05-23T04:47:53;14.40;99.90
41344;DHT22;27089;50.022;7.604;2023-05-23T04:50:21;14.40;99.90
41344;DHT22;27089;50.022;7.604;2023-05-23T04:52:48;14.40;99.90
41344;DHT22;27089;50.022;7.604;2023-05-23T04:55:16;14.30;99.90
41344;DHT22;27089;50.022;7.604;2023-05-23T04:57:44;14.30;99.90
41344;DHT22;27089;50.022;7.604;2023-05-23T05:00:12;14.20;99.90
41344;DHT22;27089;50.022;7.604;2023-05-23T05:02:40;14.20;99.90
41344;DHT22;27089;50.022;7.604;2023-05-23T05:05:08;14.10;99.90
41344;DHT22;27089;50.022;7.604;2023-05-23T05:07:36;14.20;99.90
41344;DHT22;27089;50.022;7.604;2023-05-23T05:10:04;14.10;99.90
41344;DHT22;27089;50.022;7.604;2023-05-23T05:12:33;14.10;99.90
41344;DHT22;27089;50.022;7.604;2023-05-23T05:15:02;14.10;99.90
41344;DHT22;27089;50.022;7.604;2023-05-23T05:17:29;14.10;99.90
41344;DHT22;27089;50.022;7.604;2023-05-23T05:20:02;14.10;99.90
41344;DHT22;27089;50.022;7.604;2023-05-23T05:22:33;14.10;99.90
41344;DHT22;27089;50.022;7.604;2023-05-23T05:25:01;14.10;99.90
41344;DHT22;27089;50.022;7.604;2023-05-23T05:27:31;14.20;99.90
41344;DHT22;27089;50.022;7.604;2023-05-23T05:29:59;14.10;99.90
41344;DHT22;27089;50.022;7.604;2023-05-23T05:32:29;14.00;99.90
41344;DHT22;27089;50.022;7.604;2023-05-23T05:34:58;14.00;99.90
41344;DHT22;27089;50.022;7.604;2023-05-23T05:37:25;14.10;99.90
41344;DHT22;27089;50.022;7.604;2023-05-23T05:39:53;14.10;99.90
41344;DHT22;27089;50.022;7.604;2023-05-23T05:42:21;14.30;99.90
41344;DHT22;27089;50.022;7.604;2023-05-23T05:44:48;14.40;99.90
41344;DHT22;27089;50.022;7.604;2023-05-23T05:47:17;14.60;99.90
41344;DHT22;27089;50.022;7.604;2023-05-23T05:49:44;14.60;99.90
41344;DHT22;27089;50.022;7.604;2023-05-23T05:52:11;14.70;99.90
41344;DHT22;27089;50.022;7.604;2023-05-23T05:54:38;14.60;99.90
41344;DHT22;27089;50.022;7.604;2023-05-23T05:57:06;14.60;99.90
41344;DHT22;27089;50.022;7.604;2023-05-23T05:59:33;14.60;99.90
41344;DHT22;27089;50.022;7.604;2023-05-23T06:02:00;14.60;99.90
41344;DHT22;27089;50.022;7.604;2023-05-23T06:04:29;14.60;99.90
41344;DHT22;27089;50.022;7.604;2023-05-23T06:06:56;14.50;99.90
41344;DHT22;27089;50.022;7.604;2023-05-23T06:09:23;14.50;99.90
41344;DHT22;27089;50.022;7.604;2023-05-23T06:11:51;14.40;99.90
41344;DHT22;27089;50.022;7.604;2023-05-23T06:14:19;14.40;99.90
41344;DHT22;27089;50.022;7.604;2023-05-23T06:16:46;14.40;99.90
41344;DHT22;27089;50.022;7.604;2023-05-23T06:19:13;14.40;99.90
41344;DHT22;27089;50.022;7.604;2023-05-23T06:21:41;14.40;99.90
41344;DHT22;27089;50.022;7.604;2023-05-23T06:24:08;14.50;99.90
41344;DHT22;27089;50.022;7.604;2023-05-23T06:26:35;14.60;99.90
41344;DHT22;27089;50.022;7.604;2023-05-23T06:29:03;14.50;99.90
41344;DHT22;27089;50.022;7.604;2023-05-23T06:31:30;14.40;99.90
41344;DHT22;27089;50.022;7.604;2023-05-23T06:33:57;14.30;99.90
41344;DHT22;27089;50.022;7.604;2023-05-23T06:36:24;14.20;99.90
41344;DHT22;27089;50.022;7.604;2023-05-23T06:38:53;14.20;99.90
41344;DHT22;27089;50.022;7.604;2023-05-23T06:41:20;14.30;99.90
41344;DHT22;27089;50.022;7.604;2023-05-23T06:43:47;14.30;99.90
41344;DHT22;27089;50.022;7.604;2023-05-23T06:46:14;14.40;99.90
41344;DHT22;27089;50.022;7.604;2023-05-23T06:48:41;14.50;99.90
41344;DHT22;27089;50.022;7.604;2023-05-23T06:51:08;14.60;99.90
41344;DHT22;27089;50.022;7.604;2023-05-23T06:53:35;14.80;99.90
41344;DHT22;27089;50.022;7.604;2023-05-23T06:56:04;14.90;99.90
41344;DHT22;27089;50.022;7.604;2023-05-23T06:58:31;14.90;99.90
41344;DHT22;27089;50.022;7.604;2023-05-23T07:00:58;14.90;99.90
41344;DHT22;27089;50.022;7.604;2023-05-23T07:03:25;15.00;99.90
41344;DHT22;27089;50.022;7.604;2023-05-23T07:05:53;15.10;99.90
41344;DHT22;27089;50.022;7.604;2023-05-23T07:08:21;15.30;99.90
41344;DHT22;27089;50.022;7.604;2023-05-23T07:10:48;15.30;99.90
41344;DHT22;27089;50.022;7.604;2023-05-23T07:13:16;15.50;99.90
41344;DHT22;27089;50.022;7.604;2023-05-23T07:15:43;15.50;99.90
41344;DHT22;27089;50.022;7.604;2023-05-23T07:18:10;15.60;99.90
41344;DHT22;27089;50.022;7.604;2023-05-23T07:20:38;15.90;99.90
41344;DHT22;27089;50.022;7.604;2023-05-23T07:23:05;16.10;99.90
41344;DHT22;27089;50.022;7.604;2023-05-23T07:25:32;15.90;99.90
41344;DHT22;27089;50.022;7.604;2023-05-23T07:28:00;15.80;99.90
41344;DHT22;27089;50.022;7.604;2023-05-23T07:30:29;15.50;99.90
41344;DHT22;27089;50.022;7.604;2023-05-23T07:32:56;15.30;99.90
41344;DHT22;27089;50.022;7.604;2023-05-23T07:35:23;15.30;99.90
41344;DHT22;27089;50.022;7.604;2023-05-23T07:37:50;15.30;99.90
41344;DHT22;27089;50.022;7.604;2023-05-23T07:40:18;15.20;99.90
41344;DHT22;27089;50.022;7.604;2023-05-23T07:42:45;15.10;99.90
41344;DHT22;27089;50.022;7.604;2023-05-23T07:45:12;15.20;99.90
41344;DHT22;27089;50.022;7.604;2023-05-23T07:47:40;15.30;99.90
41344;DHT22;27089;50.022;7.604;2023-05-23T07:50:08;15.40;99.90
41344;DHT22;27089;50.022;7.604;2023-05-23T07:52:35;15.40;99.90
41344;DHT22;27089;50.022;7.604;2023-05-23T07:55:03;15.40;99.90
41344;DHT22;27089;50.022;7.604;2023-05-23T07:57:30;15.50;99.90
41344;DHT22;27089;50.022;7.604;2023-05-23T07:59:58;15.50;99.90
41344;DHT22;27089;50.022;7.604;2023-05-23T08:02:25;15.50;99.90
41344;DHT22;27089;50.022;7.604;2023-05-23T08:04:53;15.60;99.90
41344;DHT22;27089;50.022;7.604;2023-05-23T08:07:21;15.70;99.90
41344;DHT22;27089;50.022;7.604;2023-05-23T08:09:49;15.70;99.90
41344;DHT22;27089;50.022;7.604;2023-05-23T08:12:16;15.70;99.90
41344;DHT22;27089;50.022;7.604;2023-05-23T08:14:43;15.50;99.90
41344;DHT22;27089;50.022;7.604;2023-05-23T08:17:11;15.40;99.90
41344;DHT22;27089;50.022;7.604;2023-05-23T08:19:38;15.30;99.90
41344;DHT22;27089;50.022;7.604;2023-05-23T08:22:07;15.20;99.90
41344;DHT22;27089;50.022;7.604;2023-05-23T08:24:34;15.30;99.90
41344;DHT22;27089;50.022;7.604;2023-05-23T08:27:01;15.30;99.90
41344;DHT22;27089;50.022;7.604;2023-05-23T08:29:28;15.30;99.90
41344;DHT22;27089;50.022;7.604;2023-05-23T08:31:55;15.30;99.90
41344;DHT22;27089;50.022;7.604;2023-05-23T08:34:22;15.30;99.90
41344;DHT22;27089;50.022;7.604;2023-05-23T08:36:49;15.40;99.90
41344;DHT22;27089;50.022;7.604;2023-05-23T08:39:18;15.40;99.90
41344;DHT22;27089;50.022;7.604;2023-05-23T08:41:45;15.50;99.90
41344;DHT22;27089;50.022;7.604;2023-05-23T08:44:13;15.50;99.90
41344;DHT22;27089;50.022;7.604;2023-05-23T08:46:44;15.70;99.90
41344;DHT22;27089;50.022;7.604;2023-05-23T08:49:12;16.20;99.90
41344;DHT22;27089;50.022;7.604;2023-05-23T08:51:42;16.60;99.90
41344;DHT22;27089;50.022;7.604;2023-05-23T08:54:10;16.80;99.90
41344;DHT22;27089;50.022;7.604;2023-05-23T08:56:39;17.10;99.90
41344;DHT22;27089;50.022;7.604;2023-05-23T08:59:08;17.20;99.90
41344;DHT22;27089;50.022;7.604;2023-05-23T09:01:37;16.90;99.90
41344;DHT22;27089;50.022;7.604;2023-05-23T09:04:06;16.50;99.90
41344;DHT22;27089;50.022;7.604;2023-05-23T09:06:34;16.50;99.90
41344;DHT22;27089;50.022;7.604;2023-05-23T09:09:01;16.60;99.90
41344;DHT22;27089;50.022;7.604;2023-05-23T09:11:28;16.70;99.90
41344;DHT22;27089;50.022;7.604;2023-05-23T09:13:59;16.60;99.90
41344;DHT22;27089;50.022;7.604;2023-05-23T09:16:31;16.60;99.90
41344;DHT22;27089;50.022;7.604;2023-05-23T09:18:59;16.60;99.90
41344;DHT22;27089;50.022;7.604;2023-05-23T09:21:35;16.60;99.90
41344;DHT22;27089;50.022;7.604;2023-05-23T09:24:02;16.40;99.90
41344;DHT22;27089;50.022;7.604;2023-05-23T09:26:31;16.20;99.90
41344;DHT22;27089;50.022;7.604;2023-05-23T09:28:59;16.10;99.90
41344;DHT22;27089;50.022;7.604;2023-05-23T09:31:26;16.10;99.90
41344;DHT22;27089;50.022;7.604;2023-05-23T09:33:54;16.20;99.90
41344;DHT22;27089;50.022;7.604;2023-05-23T09:36:21;16.40;99.90
41344;DHT22;27089;50.022;7.604;2023-05-23T09:38:48;16.70;99.90
41344;DHT22;27089;50.022;7.604;2023-05-23T09:41:19;16.90;99.90
41344;DHT22;27089;50.022;7.604;2023-05-23T09:43:49;16.70;99.90
41344;DHT22;27089;50.022;7.604;2023-05-23T09:46:19;16.40;99.90
41344;DHT22;27089;50.022;7.604;2023-05-23T09:48:46;16.10;99.90
41344;DHT22;27089;50.022;7.604;2023-05-23T09:51:14;15.80;99.90
41344;DHT22;27089;50.022;7.604;2023-05-23T09:53:45;15.50;99.90
41344;DHT22;27089;50.022;7.604;2023-05-23T09:56:12;15.40;99.90
41344;DHT22;27089;50.022;7.604;2023-05-23T09:58:46;15.30;99.90
41344;DHT22;27089;50.022;7.604;2023-05-23T10:01:13;15.30;99.90
41344;DHT22;27089;50.022;7.604;2023-05-23T10:03:44;15.30;99.90
41344;DHT22;27089;50.022;7.604;2023-05-23T10:06:16;15.20;99.90
41344;DHT22;27089;50.022;7.604;2023-05-23T10:08:51;15.10;99.90
41344;DHT22;27089;50.022;7.604;2023-05-23T10:14:17;15.00;99.90
41344;DHT22;27089;50.022;7.604;2023-05-23T10:16:53;14.90;99.90
41344;DHT22;27089;50.022;7.604;2023-05-23T10:19:24;14.90;99.90
41344;DHT22;27089;50.022;7.604;2023-05-23T10:21:57;15.10;99.90
41344;DHT22;27089;50.022;7.604;2023-05-23T10:24:25;15.20;99.90
41344;DHT22;27089;50.022;7.604;2023-05-23T10:26:52;15.50;99.90
41344;DHT22;27089;50.022;7.604;2023-05-23T10:29:20;15.60;99.90
41344;DHT22;27089;50.022;7.604;2023-05-23T10:31:49;15.80;99.90
41344;DHT22;27089;50.022;7.604;2023-05-23T10:34:26;15.90;99.90
41344;DHT22;27089;50.022;7.604;2023-05-23T10:36:58;15.90;99.90
41344;DHT22;27089;50.022;7.604;2023-05-23T10:39:34;15.90;99.90
41344;DHT22;27089;50.022;7.604;2023-05-23T10:42:08;15.90;99.90
41344;DHT22;27089;50.022;7.604;2023-05-23T10:44:37;16.00;99.90
41344;DHT22;27089;50.022;7.604;2023-05-23T10:47:04;16.00;99.90
41344;DHT22;27089;50.022;7.604;2023-05-23T10:49:41;15.90;99.90
41344;DHT22;27089;50.022;7.604;2023-05-23T10:52:10;15.70;99.90
41344;DHT22;27089;50.022;7.604;2023-05-23T10:54:42;15.70;99.90
41344;DHT22;27089;50.022;7.604;2023-05-23T10:57:10;15.70;99.90
41344;DHT22;27089;50.022;7.604;2023-05-23T10:59:38;15.70;99.90
41344;DHT22;27089;50.022;7.604;2023-05-23T11:02:12;15.50;99.90
41344;DHT22;27089;50.022;7.604;2023-05-23T11:04:41;15.50;99.90
41344;DHT22;27089;50.022;7.604;2023-05-23T11:07:27;15.30;99.90
41344;DHT22;27089;50.022;7.604;2023-05-23T11:10:07;15.20;99.90
41344;DHT22;27089;50.022;7.604;2023-05-23T11:12:36;15.30;99.90
41344;DHT22;27089;50.022;7.604;2023-05-23T11:15:18;15.30;99.90
41344;DHT22;27089;50.022;7.604;2023-05-23T11:17:51;15.40;99.90
41344;DHT22;27089;50.022;7.604;2023-05-23T11:20:20;15.40;99.90
41344;DHT22;27089;50.022;7.604;2023-05-23T11:23:00;15.50;99.90
41344;DHT22;27089;50.022;7.604;2023-05-23T11:25:40;15.60;99.90
41344;DHT22;27089;50.022;7.604;2023-05-23T11:28:08;15.80;99.90
41344;DHT22;27089;50.022;7.604;2023-05-23T11:30:35;15.90;99.90
41344;DHT22;27089;50.022;7.604;2023-05-23T11:33:06;16.30;99.90
41344;DHT22;27089;50.022;7.604;2023-05-23T11:35:39;16.80;99.90
41344;DHT22;27089;50.022;7.604;2023-05-23T11:38:06;17.10;99.90
41344;DHT22;27089;50.022;7.604;2023-05-23T11:40:34;17.20;99.90
41344;DHT22;27089;50.022;7.604;2023-05-23T11:43:03;17.40;99.90
41344;DHT22;27089;50.022;7.604;2023-05-23T11:45:32;17.70;99.90
41344;DHT22;27089;50.022;7.604;2023-05-23T11:48:04;17.90;99.90
41344;DHT22;27089;50.022;7.604;2023-05-23T11:50:32;17.70;99.90
41344;DHT22;27089;50.022;7.604;2023-05-23T11:53:00;17.20;99.90
41344;DHT22;27089;50.022;7.604;2023-05-23T11:55:27;16.70;99.90
41344;DHT22;27089;50.022;7.604;2023-05-23T11:57:55;16.10;99.90
41344;DHT22;27089;50.022;7.604;2023-05-23T12:00:23;15.70;99.90
41344;DHT22;27089;50.022;7.604;2023-05-23T12:02:50;15.50;99.90
41344;DHT22;27089;50.022;7.604;2023-05-23T12:05:17;15.40;99.90
41344;DHT22;27089;50.022;7.604;2023-05-23T12:07:45;15.30;99.90
41344;DHT22;27089;50.022;7.604;2023-05-23T12:10:15;15.20;99.90
41344;DHT22;27089;50.022;7.604;2023-05-23T12:12:42;15.20;99.90
41344;DHT22;27089;50.022;7.604;2023-05-23T12:15:11;15.40;99.90
41344;DHT22;27089;50.022;7.604;2023-05-23T12:17:38;15.80;99.90
41344;DHT22;27089;50.022;7.604;2023-05-23T12:20:10;16.20;99.90
41344;DHT22;27089;50.022;7.604;2023-05-23T12:22:38;16.30;99.90
41344;DHT22;27089;50.022;7.604;2023-05-23T12:25:08;16.50;99.90
41344;DHT22;27089;50.022;7.604;2023-05-23T12:27:39;16.60;99.90
41344;DHT22;27089;50.022;7.604;2023-05-23T12:30:09;16.50;99.90
41344;DHT22;27089;50.022;7.604;2023-05-23T12:32:39;16.40;99.90
41344;DHT22;27089;50.022;7.604;2023-05-23T12:35:07;16.40;99.90
41344;DHT22;27089;50.022;7.604;2023-05-23T12:37:38;16.50;99.90
41344;DHT22;27089;50.022;7.604;2023-05-23T12:40:15;16.20;99.90
41344;DHT22;27089;50.022;7.604;2023-05-23T12:42:53;16.00;99.90
41344;DHT22;27089;50.022;7.604;2023-05-23T12:45:22;16.00;99.90
41344;DHT22;27089;50.022;7.604;2023-05-23T12:47:50;15.90;99.90
41344;DHT22;27089;50.022;7.604;2023-05-23T12:50:17;15.80;99.90
41344;DHT22;27089;50.022;7.604;2023-05-23T12:52:44;15.80;99.90
41344;DHT22;27089;50.022;7.604;2023-05-23T12:55:12;15.90;99.90
41344;DHT22;27089;50.022;7.604;2023-05-23T12:57:39;16.20;99.90
41344;DHT22;27089;50.022;7.604;2023-05-23T13:00:09;16.20;99.90
41344;DHT22;27089;50.022;7.604;2023-05-23T13:02:37;16.00;99.90
41344;DHT22;27089;50.022;7.604;2023-05-23T13:05:04;15.90;99.90
41344;DHT22;27089;50.022;7.604;2023-05-23T13:07:31;15.60;99.90
41344;DHT22;27089;50.022;7.604;2023-05-23T13:09:59;15.60;99.90
41344;DHT22;27089;50.022;7.604;2023-05-23T13:12:26;15.50;99.90
41344;DHT22;27089;50.022;7.604;2023-05-23T13:14:53;15.40;99.90
41344;DHT22;27089;50.022;7.604;2023-05-23T13:17:21;15.30;99.90
41344;DHT22;27089;50.022;7.604;2023-05-23T13:19:49;15.30;99.90
41344;DHT22;27089;50.022;7.604;2023-05-23T13:22:15;15.30;99.90
41344;DHT22;27089;50.022;7.604;2023-05-23T13:24:42;15.50;99.90
41344;DHT22;27089;50.022;7.604;2023-05-23T13:27:10;15.80;99.90
41344;DHT22;27089;50.022;7.604;2023-05-23T13:29:37;16.50;99.90
41344;DHT22;27089;50.022;7.604;2023-05-23T13:32:04;17.10;99.90
41344;DHT22;27089;50.022;7.604;2023-05-23T13:34:33;17.50;99.90
41344;DHT22;27089;50.022;7.604;2023-05-23T13:37:02;17.50;99.90
41344;DHT22;27089;50.022;7.604;2023-05-23T13:39:29;17.40;99.90
41344;DHT22;27089;50.022;7.604;2023-05-23T13:41:56;17.50;99.90
41344;DHT22;27089;50.022;7.604;2023-05-23T13:44:23;17.50;99.90
41344;DHT22;27089;50.022;7.604;2023-05-23T13:46:50;17.40;99.90
41344;DHT22;27089;50.022;7.604;2023-05-23T13:49:17;17.30;99.90
41344;DHT22;27089;50.022;7.604;2023-05-23T13:51:45;17.20;99.90
41344;DHT22;27089;50.022;7.604;2023-05-23T13:54:14;17.30;99.90
41344;DHT22;27089;50.022;7.604;2023-05-23T13:56:42;17.40;99.90
41344;DHT22;27089;50.022;7.604;2023-05-23T13:59:09;17.60;99.90
41344;DHT22;27089;50.022;7.604;2023-05-23T14:01:36;17.50;99.90
41344;DHT22;27089;50.022;7.604;2023-05-23T14:04:03;17.40;99.90
41344;DHT22;27089;50.022;7.604;2023-05-23T14:06:30;17.30;99.90
41344;DHT22;27089;50.022;7.604;2023-05-23T14:09:00;17.40;99.90
41344;DHT22;27089;50.022;7.604;2023-05-23T14:11:27;17.50;99.90
41344;DHT22;27089;50.022;7.604;2023-05-23T14:13:54;17.30;99.90
41344;DHT22;27089;50.022;7.604;2023-05-23T14:16:22;17.10;99.90
41344;DHT22;27089;50.022;7.604;2023-05-23T14:18:49;16.90;99.90
41344;DHT22;27089;50.022;7.604;2023-05-23T14:21:16;16.90;99.90
41344;DHT22;27089;50.022;7.604;2023-05-23T14:23:43;16.90;99.90
41344;DHT22;27089;50.022;7.604;2023-05-23T14:26:12;16.50;99.90
41344;DHT22;27089;50.022;7.604;2023-05-23T14:28:39;16.30;99.90
41344;DHT22;27089;50.022;7.604;2023-05-23T14:31:06;16.20;99.90
41344;DHT22;27089;50.022;7.604;2023-05-23T14:33:33;16.20;99.90
41344;DHT22;27089;50.022;7.604;2023-05-23T14:36:00;16.10;99.90
41344;DHT22;27089;50.022;7.604;2023-05-23T14:38:27;16.30;99.90
41344;DHT22;27089;50.022;7.604;2023-05-23T14:40:54;16.60;99.90
41344;DHT22;27089;50.022;7.604;2023-05-23T14:43:25;16.90;99.90
41344;DHT22;27089;50.022;7.604;2023-05-23T14:45:53;17.20;99.90
41344;DHT22;27089;50.022;7.604;2023-05-23T14:48:20;17.30;99.90
41344;DHT22;27089;50.022;7.604;2023-05-23T14:50:47;17.40;99.90
41344;DHT22;27089;50.022;7.604;2023-05-23T14:53:15;17.60;99.90
41344;DHT22;27089;50.022;7.604;2023-05-23T14:55:46;17.80;99.90
41344;DHT22;27089;50.022;7.604;2023-05-23T14:58:13;17.80;99.90
41344;DHT22;27089;50.022;7.604;2023-05-23T15:00:41;17.50;99.90
41344;DHT22;27089;50.022;7.604;2023-05-23T15:03:11;17.60;99.90
41344;DHT22;27089;50.022;7.604;2023-05-23T15:05:38;17.40;99.90
41344;DHT22;27089;50.022;7.604;2023-05-23T15:08:06;17.20;99.90
41344;DHT22;27089;50.022;7.604;2023-05-23T15:10:33;17.00;99.90
41344;DHT22;27089;50.022;7.604;2023-05-23T15:13:00;16.90;99.90
41344;DHT22;27089;50.022;7.604;2023-05-23T15:15:28;16.90;99.90
41344;DHT22;27089;50.022;7.604;2023-05-23T15:18:03;16.80;99.90
41344;DHT22;27089;50.022;7.604;2023-05-23T15:20:32;16.60;99.90
41344;DHT22;27089;50.022;7.604;2023-05-23T15:22:59;16.60;99.90
41344;DHT22;27089;50.022;7.604;2023-05-23T15:25:26;16.70;99.90
41344;DHT22;27089;50.022;7.604;2023-05-23T15:27:53;16.80;99.90
41344;DHT22;27089;50.022;7.604;2023-05-23T15:30:21;16.90;99.90
41344;DHT22;27089;50.022;7.604;2023-05-23T15:32:48;16.90;99.90
41344;DHT22;27089;50.022;7.604;2023-05-23T15:35:16;17.00;99.90
41344;DHT22;27089;50.022;7.604;2023-05-23T15:37:43;16.70;99.90
41344;DHT22;27089;50.022;7.604;2023-05-23T15:40:11;16.50;99.90
41344;DHT22;27089;50.022;7.604;2023-05-23T15:42:38;16.20;99.90